Hlavní strana
METAR-TAF:

METAR-TAF

Letiště :

Danville, Illinois, Spojené státy americké

zeměpisná šířka: 40-11-58N, zeměpisná délka: 087-35-44W, výška: 212 m

Aktuální stav počasí

Zpráva byla vytvořena před 26 minutami, v 19:35 UTC
Bezvětří
Teplota 7°C
Vlhkost vzduchu 100%
Tlak 1008 hPa
Viditelnost: 11.3 km
Zataženo ve výšce 800 ft
slabý déšť

METAR: KDNV 241935Z AUTO 00000KT 7SM -RA OVC008 07/07 A2976 RMK AO2 P0001 T00680065

Čas: 14:01 (20:01 UTC)


TAF: chybějící

Stav a předpovědi počasí z více než 4 000 letišť (zprávy METAR a TAF).

Červené a žluté tečky na mapě představují dostupné meteorologické stanice.

Když kurzor umístíte na tečku, zobrazí se název stanice.

Pak kliknutím zobrazíte stav a předpověď počasí.

Chcete-li změnit mapu, kliknutím na zelené tlačítko se znaménkem +mapu přiblížíte, kliknutím na zelené tlačítko se znaménkem – mapu oddálíte a kliknutím na zelené šipky přejdete na sousední mapy.


METAR-TAF: